createdAt,value
2023-05-08T00:01:05.728Z,12.88
2023-05-08T00:03:35.490Z,5.50
2023-05-08T00:06:08.038Z,8.27
2023-05-08T00:08:37.451Z,4.72
2023-05-08T00:11:06.897Z,5.90
2023-05-08T00:13:36.388Z,6.97
2023-05-08T00:16:06.033Z,9.02
2023-05-08T00:18:35.097Z,5.65
2023-05-08T00:21:04.912Z,8.02
2023-05-08T00:23:34.517Z,7.65
2023-05-08T00:26:03.653Z,8.15
2023-05-08T00:28:32.903Z,10.23
2023-05-08T00:31:05.640Z,9.52
2023-05-08T00:33:35.280Z,8.88
2023-05-08T00:36:05.786Z,10.48
2023-05-08T00:38:36.881Z,12.45
2023-05-08T00:41:06.079Z,17.50
2023-05-08T00:43:36.272Z,14.20
2023-05-08T00:46:06.708Z,11.65
2023-05-08T00:48:37.373Z,12.20
2023-05-08T00:51:09.796Z,14.80
2023-05-08T00:53:41.067Z,12.90
2023-05-08T00:56:14.243Z,13.15
2023-05-08T00:58:45.039Z,10.32
2023-05-08T01:01:15.057Z,9.43
2023-05-08T01:03:45.994Z,10.35
2023-05-08T01:06:15.633Z,14.88
2023-05-08T01:08:47.858Z,9.82
2023-05-08T01:11:45.770Z,12.02
2023-05-08T01:14:36.289Z,6.40
2023-05-08T01:17:20.741Z,6.07
2023-05-08T01:20:20.563Z,5.68
2023-05-08T01:23:10.582Z,8.23
2023-05-08T01:25:48.492Z,7.20
2023-05-08T01:28:34.677Z,10.13
2023-05-08T01:31:29.481Z,9.60
2023-05-08T01:34:10.164Z,10.35
2023-05-08T01:36:39.338Z,9.57
2023-05-08T01:39:28.821Z,14.85
2023-05-08T01:42:06.728Z,11.35
2023-05-08T01:44:45.343Z,16.40
2023-05-08T01:47:17.145Z,15.85
2023-05-08T01:49:50.693Z,18.90
2023-05-08T01:52:51.843Z,18.40
2023-05-08T01:55:33.363Z,20.48
2023-05-08T01:58:05.991Z,18.20
2023-05-08T02:00:35.612Z,17.47
2023-05-08T02:03:09.632Z,15.57
2023-05-08T02:05:40.524Z,21.25
2023-05-08T02:08:15.279Z,20.65
2023-05-08T02:10:47.351Z,16.42
2023-05-08T02:13:20.254Z,20.15
2023-05-08T02:15:51.685Z,19.67
2023-05-08T02:18:23.541Z,18.27
2023-05-08T02:20:55.515Z,15.63
2023-05-08T02:23:27.758Z,13.32
2023-05-08T02:25:58.511Z,15.75
2023-05-08T02:28:30.903Z,14.45
2023-05-08T02:31:02.297Z,13.20
2023-05-08T02:33:32.550Z,17.30
2023-05-08T02:36:03.960Z,9.95
2023-05-08T02:38:33.884Z,8.35
2023-05-08T02:41:07.723Z,7.15
2023-05-08T02:43:37.805Z,6.53
2023-05-08T02:46:25.239Z,6.07
2023-05-08T02:49:09.464Z,6.93
2023-05-08T02:52:02.643Z,10.60
2023-05-08T02:54:38.043Z,7.57
2023-05-08T02:57:29.807Z,11.13
2023-05-08T03:00:15.471Z,5.78
2023-05-08T03:03:29.857Z,5.35
2023-05-08T03:08:34.357Z,6.97
2023-05-08T03:11:09.994Z,6.00
2023-05-08T03:13:43.484Z,4.88
2023-05-08T03:16:19.356Z,7.07
2023-05-08T03:19:07.010Z,10.55
2023-05-08T03:21:39.017Z,8.60
2023-05-08T03:24:10.743Z,5.35
2023-05-08T03:26:40.153Z,6.72
2023-05-08T03:29:09.832Z,8.23
2023-05-08T03:31:40.867Z,11.45
2023-05-08T03:34:13.314Z,7.15
2023-05-08T03:36:43.494Z,9.10
2023-05-08T03:39:13.724Z,9.65
2023-05-08T03:41:43.465Z,11.40
2023-05-08T03:44:13.615Z,8.63
2023-05-08T03:46:44.674Z,7.80
2023-05-08T03:49:16.320Z,8.35
2023-05-08T03:51:46.859Z,9.88
2023-05-08T03:54:17.072Z,11.30
2023-05-08T03:56:47.069Z,13.70
2023-05-08T03:59:23.299Z,13.15
2023-05-08T04:02:38.811Z,13.10
2023-05-08T04:05:35.874Z,8.88
2023-05-08T04:08:53.611Z,11.65
2023-05-08T04:12:15.735Z,11.98
2023-05-08T04:15:01.913Z,16.42
2023-05-08T04:17:53.475Z,23.08
2023-05-08T04:20:26.290Z,17.80
2023-05-08T04:22:57.300Z,14.60
2023-05-08T04:25:28.494Z,15.05
2023-05-08T04:27:58.822Z,16.98
2023-05-08T04:30:29.886Z,24.83
2023-05-08T04:33:01.568Z,18.88
2023-05-08T04:35:31.386Z,21.75
2023-05-08T04:38:01.543Z,17.55
2023-05-08T04:40:30.946Z,17.52
2023-05-08T04:43:00.708Z,17.50
2023-05-08T04:45:30.476Z,16.67
2023-05-08T04:47:59.639Z,19.50
2023-05-08T04:50:28.928Z,13.32
2023-05-08T04:52:58.530Z,13.52
2023-05-08T04:55:28.062Z,13.23
2023-05-08T04:57:57.212Z,12.00
2023-05-08T05:00:26.664Z,12.70
2023-05-08T05:02:56.163Z,23.17
2023-05-08T05:05:25.610Z,10.48
2023-05-08T05:07:55.346Z,10.13
2023-05-08T05:10:24.914Z,17.85
2023-05-08T05:12:54.744Z,15.10
2023-05-08T05:15:24.280Z,12.20
2023-05-08T05:17:53.616Z,18.48
2023-05-08T05:20:22.979Z,11.93
2023-05-08T05:22:52.455Z,13.93
2023-05-08T05:25:21.789Z,19.35
2023-05-08T05:27:51.393Z,14.77
2023-05-08T05:30:20.597Z,14.27
2023-05-08T05:32:50.533Z,13.52
2023-05-08T05:35:19.649Z,23.50
2023-05-08T05:37:49.008Z,18.58
2023-05-08T05:40:19.565Z,15.02
2023-05-08T05:42:52.286Z,12.82
2023-05-08T05:45:23.035Z,9.38
2023-05-08T05:47:55.140Z,13.07
2023-05-08T05:50:28.415Z,10.52
2023-05-08T05:52:59.308Z,14.82
2023-05-08T05:55:29.403Z,10.70
2023-05-08T05:58:00.344Z,14.00
2023-05-08T06:00:29.894Z,16.30
2023-05-08T06:02:59.644Z,12.73
2023-05-08T06:05:30.044Z,13.23
2023-05-08T06:08:00.661Z,13.85
2023-05-08T06:10:32.020Z,10.63
2023-05-08T06:13:01.284Z,13.18
2023-05-08T06:15:31.947Z,12.55
2023-05-08T06:18:01.337Z,26.48
2023-05-08T06:20:30.586Z,14.93
2023-05-08T06:23:00.514Z,17.05
2023-05-08T06:25:29.696Z,21.65
2023-05-08T06:27:59.096Z,21.88
2023-05-08T06:30:28.432Z,21.00
2023-05-08T06:32:57.815Z,19.00
2023-05-08T06:35:27.402Z,21.35
2023-05-08T06:37:56.576Z,21.67
2023-05-08T06:40:26.180Z,18.98
2023-05-08T06:42:55.354Z,20.65
2023-05-08T06:45:25.221Z,19.95
2023-05-08T06:47:54.767Z,18.85
2023-05-08T06:50:24.140Z,24.00
2023-05-08T06:52:53.451Z,19.98
2023-05-08T06:55:22.709Z,20.20
2023-05-08T06:57:52.390Z,23.40
2023-05-08T07:00:21.951Z,19.95
2023-05-08T07:02:51.312Z,23.98
2023-05-08T07:05:21.579Z,17.00
2023-05-08T07:07:50.836Z,12.93
2023-05-08T07:10:22.286Z,16.98
2023-05-08T07:12:52.350Z,10.30
2023-05-08T07:15:26.160Z,10.70
2023-05-08T07:17:56.438Z,13.52
2023-05-08T07:20:26.099Z,8.70
2023-05-08T07:22:55.397Z,16.38
2023-05-08T07:25:25.490Z,10.68
2023-05-08T07:27:54.777Z,10.70
2023-05-08T07:30:24.181Z,13.57
2023-05-08T07:32:53.480Z,15.80
2023-05-08T07:35:23.380Z,10.02
2023-05-08T07:37:52.413Z,9.50
2023-05-08T07:40:21.831Z,10.25
2023-05-08T07:42:50.893Z,10.60
2023-05-08T07:45:20.389Z,11.43
2023-05-08T07:47:55.516Z,13.07
2023-05-08T07:50:26.678Z,10.35
2023-05-08T07:52:56.520Z,13.50
2023-05-08T07:55:25.615Z,12.50
2023-05-08T07:57:54.889Z,9.98
2023-05-08T08:00:24.236Z,15.40
2023-05-08T08:02:53.990Z,11.32
2023-05-08T08:05:23.616Z,13.27
2023-05-08T08:07:53.209Z,13.23
2023-05-08T08:10:23.105Z,11.52
2023-05-08T08:12:52.254Z,7.88
2023-05-08T08:15:21.609Z,9.05
2023-05-08T08:17:50.809Z,7.63
2023-05-08T08:20:20.213Z,12.15
2023-05-08T08:22:50.510Z,14.45
2023-05-08T08:25:19.599Z,11.63
2023-05-08T08:27:48.934Z,11.93
2023-05-08T08:30:18.921Z,11.23
2023-05-08T08:32:48.503Z,8.68
2023-05-08T08:35:18.488Z,12.60
2023-05-08T08:37:48.330Z,10.73
2023-05-08T08:40:17.357Z,11.48
2023-05-08T08:42:48.259Z,5.63
2023-05-08T08:45:18.106Z,12.07
2023-05-08T08:47:49.785Z,10.02
2023-05-08T08:50:21.727Z,5.00
2023-05-08T08:53:00.260Z,10.70
2023-05-08T08:55:31.001Z,9.50
2023-05-08T08:58:20.383Z,10.82
2023-05-08T09:00:51.035Z,9.80
2023-05-08T09:03:20.684Z,6.50
2023-05-08T09:05:50.448Z,13.23
2023-05-08T09:08:20.541Z,13.93
2023-05-08T09:10:50.007Z,10.63
2023-05-08T09:13:20.492Z,9.25
2023-05-08T09:15:52.685Z,13.02
2023-05-08T09:18:22.371Z,17.88
2023-05-08T09:20:52.546Z,11.48
2023-05-08T09:23:22.590Z,8.98
2023-05-08T09:25:52.169Z,11.60
2023-05-08T09:28:28.664Z,13.82
2023-05-08T09:30:59.943Z,11.05
2023-05-08T09:33:30.596Z,9.60
2023-05-08T09:36:00.258Z,9.52
2023-05-08T09:38:43.053Z,9.98
2023-05-08T09:41:17.084Z,12.18
2023-05-08T09:44:01.292Z,12.45
2023-05-08T09:46:31.702Z,8.98
2023-05-08T09:49:03.207Z,7.60
2023-05-08T09:51:34.058Z,9.20
2023-05-08T09:54:07.516Z,5.20
2023-05-08T09:56:40.873Z,6.30
2023-05-08T09:59:28.075Z,6.93
2023-05-08T10:01:58.029Z,7.47
2023-05-08T10:04:35.029Z,6.00
2023-05-08T10:07:05.345Z,3.90
2023-05-08T10:09:46.974Z,14.15
2023-05-08T10:12:20.133Z,5.60
2023-05-08T10:14:49.369Z,5.28
2023-05-08T10:17:29.055Z,11.55
2023-05-08T10:20:05.382Z,9.82
2023-05-08T10:22:39.391Z,5.40
2023-05-08T10:25:17.964Z,5.03
2023-05-08T10:28:07.410Z,5.10
2023-05-08T10:30:44.366Z,5.28
2023-05-08T10:33:17.187Z,10.40
2023-05-08T10:35:47.719Z,8.60
2023-05-08T10:38:19.070Z,6.57
2023-05-08T10:40:52.015Z,6.40
2023-05-08T10:43:22.056Z,4.78
2023-05-08T10:45:52.189Z,6.65
2023-05-08T10:48:39.874Z,10.35
2023-05-08T10:51:34.628Z,4.75
2023-05-08T10:54:20.493Z,9.52
2023-05-08T10:56:50.823Z,10.40
2023-05-08T10:59:21.878Z,6.47
2023-05-08T11:01:51.720Z,8.82
2023-05-08T11:04:30.107Z,6.93
2023-05-08T11:07:00.916Z,13.05
2023-05-08T11:09:48.946Z,8.88
2023-05-08T11:12:32.678Z,5.85
2023-05-08T11:15:07.580Z,9.68
2023-05-08T11:17:37.186Z,11.98
2023-05-08T11:20:08.570Z,6.38
2023-05-08T11:22:39.279Z,8.10
2023-05-08T11:25:09.106Z,6.82
2023-05-08T11:27:39.746Z,9.70
2023-05-08T11:30:37.858Z,14.35
2023-05-08T11:33:09.711Z,6.32
2023-05-08T11:35:42.303Z,6.25
2023-05-08T11:38:31.535Z,12.70
2023-05-08T11:41:06.620Z,12.45
2023-05-08T11:43:38.487Z,11.57
2023-05-08T11:46:15.037Z,12.17
2023-05-08T11:48:44.754Z,7.82
2023-05-08T11:51:14.976Z,11.30
2023-05-08T11:53:46.186Z,9.63
2023-05-08T11:56:15.852Z,13.48
2023-05-08T11:58:45.286Z,14.93
2023-05-08T12:01:22.118Z,8.88
2023-05-08T12:04:01.018Z,8.63
2023-05-08T12:06:35.010Z,6.57
2023-05-08T12:09:06.361Z,14.48
2023-05-08T12:11:36.423Z,12.82
2023-05-08T12:14:05.784Z,9.45
2023-05-08T12:16:39.416Z,10.75
2023-05-08T12:19:13.840Z,15.63
2023-05-08T12:21:50.534Z,9.68
2023-05-08T12:24:26.628Z,10.30
2023-05-08T12:26:57.513Z,12.93
2023-05-08T12:29:29.694Z,17.77
2023-05-08T12:32:00.546Z,10.32
2023-05-08T12:34:30.276Z,13.68
2023-05-08T12:37:06.543Z,10.93
2023-05-08T12:39:38.891Z,15.52
2023-05-08T12:42:08.675Z,16.83
2023-05-08T12:44:38.070Z,10.65
2023-05-08T12:47:07.697Z,12.07
2023-05-08T12:49:39.393Z,11.05
2023-05-08T12:52:13.701Z,19.48
2023-05-08T12:54:49.514Z,16.50
2023-05-08T12:57:22.446Z,13.27
2023-05-08T12:59:53.173Z,11.32
2023-05-08T13:02:28.207Z,15.50
2023-05-08T13:04:58.122Z,12.93
2023-05-08T13:07:33.644Z,17.00
2023-05-08T13:10:06.739Z,13.35
2023-05-08T13:12:35.953Z,18.65
2023-05-08T13:15:06.060Z,11.75
2023-05-08T13:17:35.553Z,9.15
2023-05-08T13:20:06.297Z,22.30
2023-05-08T13:22:36.129Z,20.27
2023-05-08T13:25:05.515Z,12.55
2023-05-08T13:27:34.754Z,16.73
2023-05-08T13:30:03.940Z,13.18
2023-05-08T13:32:33.476Z,9.63
2023-05-08T13:35:02.539Z,10.80
2023-05-08T13:37:32.472Z,13.75
2023-05-08T13:40:02.297Z,17.25
2023-05-08T13:42:31.360Z,17.30
2023-05-08T13:45:01.672Z,21.38
2023-05-08T13:47:30.898Z,26.73
2023-05-08T13:50:00.118Z,14.10
2023-05-08T13:52:31.822Z,22.15
2023-05-08T13:55:01.255Z,18.10
2023-05-08T13:57:30.327Z,18.67
2023-05-08T14:00:00.017Z,15.13
2023-05-08T14:02:29.585Z,13.13
2023-05-08T14:04:59.384Z,17.75
2023-05-08T14:07:29.171Z,11.70
2023-05-08T14:09:58.696Z,15.73
2023-05-08T14:12:28.385Z,15.32
2023-05-08T14:14:58.016Z,16.00
2023-05-08T14:17:27.380Z,14.00
2023-05-08T14:19:57.245Z,16.40
2023-05-08T14:22:26.777Z,16.70
2023-05-08T14:24:55.979Z,8.65
2023-05-08T14:27:25.269Z,15.82
2023-05-08T14:29:55.238Z,11.65
2023-05-08T14:32:24.909Z,16.33
2023-05-08T14:34:54.316Z,11.98
2023-05-08T14:37:23.438Z,15.13
2023-05-08T14:39:55.427Z,14.50
2023-05-08T14:42:24.652Z,21.63
2023-05-08T14:44:54.350Z,23.63
2023-05-08T14:47:24.926Z,16.45
2023-05-08T14:49:54.984Z,19.90
2023-05-08T14:52:24.995Z,17.23
2023-05-08T14:54:54.480Z,16.42
2023-05-08T14:57:24.247Z,22.17
2023-05-08T14:59:55.328Z,20.85
2023-05-08T15:02:26.202Z,16.85
2023-05-08T15:04:55.604Z,19.67
2023-05-08T15:07:29.486Z,20.17
2023-05-08T15:09:59.132Z,19.65
2023-05-08T15:12:28.578Z,19.17
2023-05-08T15:14:58.233Z,16.40
2023-05-08T15:17:27.774Z,18.35
2023-05-08T15:19:56.860Z,22.05
2023-05-08T15:22:34.046Z,20.08
2023-05-08T15:25:03.801Z,21.30
2023-05-08T15:27:33.555Z,18.85
2023-05-08T15:30:02.822Z,19.77
2023-05-08T15:32:32.257Z,18.55
2023-05-08T15:35:01.471Z,19.55
2023-05-08T15:37:30.615Z,15.75
2023-05-08T15:40:00.806Z,16.98
2023-05-08T15:42:30.079Z,15.65
2023-05-08T15:44:59.804Z,15.93
2023-05-08T15:47:29.084Z,20.60
2023-05-08T15:49:58.354Z,17.33
2023-05-08T15:52:27.539Z,14.25
2023-05-08T15:54:56.798Z,24.95
2023-05-08T15:57:28.467Z,19.80
2023-05-08T15:59:57.732Z,23.70
2023-05-08T16:02:26.878Z,18.90
2023-05-08T16:04:56.464Z,22.88
2023-05-08T16:07:25.589Z,24.48
2023-05-08T16:09:54.721Z,28.08
2023-05-08T16:12:23.948Z,21.00
2023-05-08T16:14:53.331Z,22.52
2023-05-08T16:17:22.460Z,25.42
2023-05-08T16:19:51.938Z,24.88
2023-05-08T16:22:21.029Z,24.40
2023-05-08T16:24:51.087Z,18.13
2023-05-08T16:27:20.188Z,25.20
2023-05-08T16:29:50.165Z,23.08
2023-05-08T16:32:19.365Z,29.63
2023-05-08T16:34:48.660Z,21.80
2023-05-08T16:37:17.641Z,23.63
2023-05-08T16:39:47.324Z,36.83
2023-05-08T16:42:16.408Z,29.00
2023-05-08T16:44:46.258Z,26.17
2023-05-08T16:47:16.198Z,23.70
2023-05-08T16:49:46.306Z,18.90
2023-05-08T16:52:15.532Z,25.48
2023-05-08T16:54:44.756Z,26.13
2023-05-08T16:57:13.912Z,38.20
2023-05-08T16:59:43.638Z,29.52
2023-05-08T17:02:16.822Z,24.63
2023-05-08T17:07:19.457Z,26.17
2023-05-08T17:09:54.176Z,25.58
2023-05-08T17:12:23.924Z,25.75
2023-05-08T17:14:53.594Z,28.83
2023-05-08T17:17:22.830Z,30.25
2023-05-08T17:19:52.335Z,39.72
2023-05-08T17:22:22.805Z,25.90
2023-05-08T17:24:52.465Z,31.17
2023-05-08T17:27:21.672Z,29.35
2023-05-08T17:29:50.782Z,23.05
2023-05-08T17:32:20.509Z,30.33
2023-05-08T17:34:49.840Z,25.35
2023-05-08T17:37:18.870Z,28.95
2023-05-08T17:39:48.498Z,34.15
2023-05-08T17:42:17.469Z,38.40
2023-05-08T17:44:46.899Z,31.55
2023-05-08T17:47:16.048Z,34.50
2023-05-08T17:49:45.339Z,24.58
2023-05-08T17:52:14.309Z,39.20
2023-05-08T17:54:43.684Z,29.42
2023-05-08T17:57:12.763Z,31.85
2023-05-08T17:59:43.231Z,30.45
2023-05-08T18:02:12.925Z,24.40
2023-05-08T18:04:42.310Z,27.77
2023-05-08T18:07:12.813Z,30.98
2023-05-08T18:09:42.145Z,28.63
2023-05-08T18:12:12.051Z,31.60
2023-05-08T18:14:41.443Z,28.30
2023-05-08T18:17:12.890Z,34.75
2023-05-08T18:19:42.592Z,32.88
2023-05-08T18:22:14.863Z,25.88
2023-05-08T18:24:44.481Z,25.77
2023-05-08T18:27:13.749Z,30.77
2023-05-08T18:29:43.295Z,33.78
2023-05-08T18:32:13.080Z,28.92
2023-05-08T18:34:42.736Z,30.92
2023-05-08T18:37:11.993Z,29.08
2023-05-08T18:39:41.154Z,26.83
2023-05-08T18:42:10.377Z,35.05
2023-05-08T18:44:39.664Z,30.73
2023-05-08T18:47:09.063Z,37.83
2023-05-08T18:49:38.662Z,31.38
2023-05-08T18:52:07.807Z,36.30
2023-05-08T18:54:37.042Z,31.75
2023-05-08T18:57:06.303Z,35.95
2023-05-08T18:59:35.869Z,37.03
2023-05-08T19:02:05.090Z,39.15
2023-05-08T19:04:34.529Z,29.25
2023-05-08T19:07:03.615Z,36.38
2023-05-08T19:09:34.793Z,33.33
2023-05-08T19:12:04.322Z,41.45
2023-05-08T19:14:34.404Z,37.10
2023-05-08T19:17:03.645Z,40.15
2023-05-08T19:19:32.905Z,38.25
2023-05-08T19:22:02.411Z,35.92
2023-05-08T19:24:32.955Z,39.42
2023-05-08T19:27:02.507Z,45.97
2023-05-08T19:29:33.106Z,41.63
2023-05-08T19:32:04.402Z,42.50
2023-05-08T19:34:34.199Z,39.88
2023-05-08T19:37:04.060Z,44.20
2023-05-08T19:39:33.226Z,45.95
2023-05-08T19:42:02.833Z,43.83
2023-05-08T19:44:33.913Z,46.20
2023-05-08T19:47:04.159Z,41.78
2023-05-08T19:49:34.065Z,52.92
2023-05-08T19:52:03.267Z,57.90
2023-05-08T19:54:32.885Z,56.13
2023-05-08T19:57:01.878Z,66.18
2023-05-08T19:59:31.326Z,68.90
2023-05-08T20:02:00.425Z,74.40
2023-05-08T20:04:30.263Z,74.20
2023-05-08T20:06:59.441Z,70.10
2023-05-08T20:09:28.966Z,75.60
2023-05-08T20:11:58.391Z,84.55
2023-05-08T20:14:27.767Z,87.85
2023-05-08T20:16:56.733Z,87.30
2023-05-08T20:19:29.105Z,86.75
2023-05-08T20:21:58.584Z,92.60
2023-05-08T20:24:27.626Z,93.18
2023-05-08T20:26:57.425Z,96.60
2023-05-08T20:29:28.070Z,94.03
2023-05-08T20:31:57.327Z,89.15
2023-05-08T20:34:26.427Z,93.10
2023-05-08T20:36:57.448Z,76.88
2023-05-08T20:39:26.878Z,84.68
2023-05-08T20:41:55.907Z,92.50
2023-05-08T20:44:25.460Z,87.28
2023-05-08T20:46:54.929Z,89.68
2023-05-08T20:49:24.016Z,86.18
2023-05-08T20:51:53.348Z,81.97
2023-05-08T20:54:22.700Z,90.05
2023-05-08T20:56:51.888Z,93.68
2023-05-08T20:59:21.208Z,78.75
2023-05-08T21:01:50.500Z,88.47
2023-05-08T21:04:19.846Z,96.25
2023-05-08T21:06:50.269Z,99.68
2023-05-08T21:09:21.368Z,98.97
2023-05-08T21:11:50.593Z,85.85
2023-05-08T21:14:19.812Z,97.38
2023-05-08T21:16:50.191Z,87.85
2023-05-08T21:19:19.825Z,92.82
2023-05-08T21:21:48.967Z,85.85
2023-05-08T21:24:18.190Z,81.65
2023-05-08T21:26:47.630Z,79.68
2023-05-08T21:29:17.176Z,72.90
2023-05-08T21:31:46.297Z,72.97
2023-05-08T21:34:16.898Z,63.85
2023-05-08T21:36:46.236Z,64.20
2023-05-08T21:39:15.896Z,61.10
2023-05-08T21:41:45.752Z,57.50
2023-05-08T21:44:16.444Z,55.05
2023-05-08T21:46:46.145Z,62.45
2023-05-08T21:49:15.162Z,61.78
2023-05-08T21:51:47.491Z,63.28
2023-05-08T21:54:16.807Z,59.92
2023-05-08T21:56:45.822Z,55.95
2023-05-08T21:59:15.407Z,60.03
2023-05-08T22:01:45.300Z,59.65
2023-05-08T22:04:14.659Z,53.63
2023-05-08T22:06:44.364Z,54.33
2023-05-08T22:09:13.805Z,45.97
2023-05-08T22:11:42.990Z,58.08
2023-05-08T22:14:12.165Z,49.67
2023-05-08T22:16:43.543Z,50.25
2023-05-08T22:19:12.842Z,52.03
2023-05-08T22:21:42.207Z,56.40
2023-05-08T22:24:13.446Z,63.35
2023-05-08T22:26:47.217Z,64.07
2023-05-08T22:29:18.253Z,57.47
2023-05-08T22:31:48.984Z,60.28
2023-05-08T22:34:18.228Z,56.17
2023-05-08T22:36:47.368Z,60.78
2023-05-08T22:39:16.642Z,64.80
2023-05-08T22:41:45.755Z,58.25
2023-05-08T22:44:15.353Z,56.40
2023-05-08T22:46:44.961Z,54.55
2023-05-08T22:49:14.095Z,61.40
2023-05-08T22:51:43.229Z,58.15
2023-05-08T22:54:12.404Z,57.47
2023-05-08T22:56:41.517Z,52.53
2023-05-08T22:59:10.594Z,50.08
2023-05-08T23:01:40.554Z,54.17
2023-05-08T23:04:09.708Z,54.33
2023-05-08T23:06:38.889Z,48.15
2023-05-08T23:09:08.123Z,52.67
2023-05-08T23:11:37.384Z,54.67
2023-05-08T23:14:06.420Z,52.47
2023-05-08T23:16:36.061Z,53.80
2023-05-08T23:19:05.523Z,44.58
2023-05-08T23:21:44.515Z,43.60
2023-05-08T23:24:14.534Z,43.92
2023-05-08T23:26:43.651Z,40.80
2023-05-08T23:29:12.930Z,44.25
2023-05-08T23:31:41.950Z,50.83
2023-05-08T23:34:11.369Z,45.42
2023-05-08T23:36:40.591Z,45.10
2023-05-08T23:39:10.060Z,46.97
2023-05-08T23:41:39.766Z,42.70
2023-05-08T23:44:09.501Z,55.63
2023-05-08T23:46:38.800Z,45.78
2023-05-08T23:49:09.196Z,44.92
2023-05-08T23:51:38.768Z,51.08
2023-05-08T23:54:08.021Z,48.72
2023-05-08T23:56:37.226Z,41.33
2023-05-08T23:59:06.487Z,46.50
